• Join FlightAware (Why Join?)
  • Login
  • US Flag 
03:17PM EST


 

Airport Tracker/Info


-or-


 

Live Flight TrackerFlight Track Log ✈ CPT8773 ✈ 30-Jul-2013 ✈ KCPR - KCOD

Flight Track Log - Related Links

Times and Time Zones

All times are in EDT time to prevent confusion due to time zone crossing. See the CPT8773 flight status page for this flight to view local times or setup timezone preferences in your user account.

Time Position Orientation Groundspeed Altitude Reporting Facility
EDT Latitude Longitude Course Direction KTS MPH feet Rate Location/Type
09:46AM 42.9364 -106.5039 308° West 119 137 7,300  Level Salt Lake Center
09:47AM 42.9675 -106.5086 354° North 117 135 7,600 360 Climbing Salt Lake Center
09:48AM 43.0064 -106.5144 354° North 121 139 8,100 480 Climbing Salt Lake Center
09:49AM 43.0397 -106.5161 358° North 123 142 8,600 420 Climbing Salt Lake Center
09:50AM 43.0856 -106.2707 308° West  Level FlightAware Approximate
09:50AM 43.0719 -106.5189 356° North 123 142 9,000  Level Salt Lake Center
09:51AM 43.1094 -106.3122 308° West  Level FlightAware Approximate
09:51AM 43.1089 -106.5239 354° North 121 139 9,600  Level Salt Lake Center
09:52AM 43.1397 -106.5278 355° North 119 137 10,000 360 Climbing Salt Lake Center
09:53AM 43.1700 -106.5356 349° North 109 125 10,400 360 Climbing Salt Lake Center
09:54AM 43.2114 -106.5417 354° North 112 129 10,900 360 Climbing Denver Center
09:55AM 43.2392 -106.5553 340° North 113 130 11,300 300 Climbing Denver Center
09:56AM 43.2542 -106.5883 302° West 106 122 11,600 300 Climbing Denver Center
09:57AM 43.2744 -106.6281 305° West 111 128 12,000 120 Climbing Denver Center
09:58AM 43.3031 -106.6825 306° West 138 159 12,000  Level Denver Center
09:59AM 43.3269 -106.7247 308° West 145 167 12,000  Level Denver Center
10:00AM 43.3489 -106.7708 303° West 149 171 12,000  Level Denver Center
10:02AM 43.3781 -106.8186 310° West 148 170 12,000  Level Denver Center
10:03AM 43.4006 -106.8608 306° West 145 167 12,000  Level Denver Center
10:04AM 43.4261 -106.9106 305° West 143 165 12,000  Level Denver Center
10:05AM 43.4475 -106.9506 306° West 139 160 12,100  Climbing Denver Center
10:06AM 43.4686 -106.9964 302° West 143 165 12,000  Descending Denver Center
10:07AM 43.4944 -107.0439 307° West 141 162 12,100  Climbing Denver Center
10:08AM 43.5167 -107.0856 306° West 140 161 12,000 -60 Descending Denver Center
10:09AM 43.5428 -107.1319 308° West 138 159 12,000 -60 Level Denver Center
10:09AM 43.5567 -107.1589 305° West 136 157 11,900 -120 Descending Salt Lake Center
10:10AM 43.5772 -107.1992 305° West 134 154 11,900  Level Salt Lake Center
10:11AM 43.6008 -107.2458 305° West 134 154 11,900  Level Salt Lake Center
10:12AM 43.6228 -107.2864 307° West 135 155 11,900  Level Salt Lake Center
10:13AM 43.6450 -107.3294 306° West 139 160 11,900  Level Salt Lake Center
10:14AM 43.6731 -107.3775 309° West 142 163 11,900  Level Salt Lake Center
10:17AM 43.7018 -107.4581 296° West  Level FlightAware Approximate
10:24AM 43.8645 -107.7760 307° West  Level FlightAware Approximate
10:25AM 43.8883 -107.8208 306° West  Level FlightAware Approximate
10:26AM 43.9122 -107.8657 306° West  Level FlightAware Approximate
10:27AM 43.9360 -107.9106 306° West  Level FlightAware Approximate
10:28AM 43.9599 -107.9555 306° West  Level FlightAware Approximate
10:29AM 43.9837 -108.0005 306° West  Level FlightAware Approximate
10:30AM 44.0074 -108.0454 306° West  Level FlightAware Approximate
10:31AM 44.0312 -108.0905 306° West  Level FlightAware Approximate
10:32AM 44.0550 -108.1356 306° West  Level FlightAware Approximate
10:33AM 44.0787 -108.1807 306° West  Level FlightAware Approximate
10:34AM 44.1024 -108.2258 306° West  Level FlightAware Approximate
10:35AM 44.1261 -108.2710 306° West  Level FlightAware Approximate
10:36AM 44.1498 -108.3162 306° West  Level FlightAware Approximate
10:37AM 44.1741 -108.3608 307° West  Level FlightAware Approximate
10:38AM 44.1984 -108.4053 307° West  Level FlightAware Approximate
10:39AM 44.2228 -108.4499 307° West  Level FlightAware Approximate
10:40AM 44.2471 -108.4946 307° West  Level FlightAware Approximate
10:41AM 44.2714 -108.5392 307° West  Level FlightAware Approximate
10:42AM 44.2958 -108.5838 307° West  Level FlightAware Approximate
10:43AM 44.3188 -108.6274 306° West  Level FlightAware Approximate
10:44AM 44.3418 -108.6711 306° West  Level FlightAware Approximate
10:45AM 44.3648 -108.7148 306° West  Level FlightAware Approximate
10:46AM 44.3874 -108.7589 303° West  Level FlightAware Approximate
10:47AM 44.4082 -108.8047 303° West  Level FlightAware Approximate
10:48AM 44.4291 -108.8505 303° West  Level FlightAware Approximate
10:49AM 44.4499 -108.8963 302° West  Level FlightAware Approximate
10:50AM 44.4715 -108.9414 310° West  Level FlightAware Approximate
10:51AM 44.4965 -108.9830 310° West  Level FlightAware Approximate
10:52AM 44.5167 -109.0167 310° West  Level FlightAware Approximate
10:53AM 44.5202 -109.0238 310° West  Level Estimated
10:54AM 44.5167 -109.0167 310° West  Level FlightAware Approximate
10:55AM 44.5202 -109.0238 310° West  Level Estimated
10:56AM 44.5167 -109.0167 310° West  Level FlightAware Approximate
10:57AM 44.5202 -109.0238 310° West  Level Estimated
10:58AM 44.5167 -109.0167 310° West  Level FlightAware Approximate
10:59AM 44.5202 -109.0238 310° West  Level Estimated
11:00AM 44.5167 -109.0167 310° West  Level FlightAware Approximate
11:01AM 44.5202 -109.0238 310° West  Level Estimated
11:02AM 44.5167 -109.0167 310° West  Level FlightAware Approximate
11:03AM 44.5202 -109.0238 310° West  Level Estimated
11:04AM 44.5167 -109.0167 310° West  Level FlightAware Approximate
11:05AM 44.5202 -109.0238 310° West  Level Estimated
11:06AM 44.5167 -109.0167 310° West  Level FlightAware Approximate
11:07AM 44.5202 -109.0238 310° West  Level Estimated
11:08AM 44.5167 -109.0167 310° West  Level FlightAware Approximate